createdAt,value
2018-04-10T06:26:05.595Z,21.80
2018-04-10T06:28:14.466Z,21.50
2018-04-10T06:30:23.349Z,21.20
2018-04-10T06:32:32.088Z,21.10
2018-04-10T06:34:40.944Z,21.00
2018-04-10T06:36:49.795Z,20.90
2018-04-10T06:38:58.527Z,20.90
2018-04-10T06:41:07.802Z,20.90
2018-04-10T06:43:16.697Z,20.90
2018-04-10T06:45:25.998Z,20.80
2018-04-10T06:47:35.553Z,20.80
2018-04-10T06:49:44.359Z,20.80
2018-04-10T06:51:54.025Z,20.90
2018-04-10T06:54:02.858Z,20.90
2018-04-10T06:56:11.560Z,20.90
2018-04-10T06:58:20.349Z,20.90
2018-04-10T07:00:29.284Z,20.90
2018-04-10T07:02:37.889Z,20.90
2018-04-10T07:04:46.596Z,21.00
2018-04-10T07:06:55.367Z,21.10
2018-04-10T07:09:05.030Z,21.20
2018-04-10T07:11:14.269Z,21.30
2018-04-10T07:13:24.003Z,21.40
2018-04-10T07:15:32.731Z,21.40
2018-04-10T07:17:41.409Z,21.40
2018-04-10T07:19:50.305Z,21.50
2018-04-10T07:21:58.991Z,21.50
2018-04-10T07:24:08.584Z,21.60
2018-04-10T07:26:17.248Z,21.60
2018-04-10T07:28:26.852Z,21.70
2018-04-10T07:30:35.689Z,21.70
2018-04-10T07:32:45.154Z,21.70
2018-04-10T07:34:53.948Z,21.70
2018-04-10T07:37:04.255Z,21.70
2018-04-10T07:39:12.985Z,21.70
2018-04-10T07:41:21.549Z,21.70
2018-04-10T07:43:30.363Z,21.80
2018-04-10T07:45:39.280Z,21.80
2018-04-10T07:47:47.997Z,21.80
2018-04-10T07:49:56.688Z,21.90
2018-04-10T07:52:05.513Z,21.90
2018-04-10T07:54:08.601Z,22.00
2018-04-10T07:56:11.712Z,22.00
2018-04-10T07:58:14.928Z,22.10
2018-04-10T08:00:18.047Z,22.30
2018-04-10T08:02:21.165Z,22.50
2018-04-10T08:04:25.234Z,22.70
2018-04-10T08:06:28.334Z,22.60
2018-04-10T08:08:31.482Z,22.80
2018-04-10T08:10:34.598Z,22.90
2018-04-10T08:12:37.769Z,22.90
2018-04-10T08:14:40.919Z,23.00
2018-04-10T08:16:44.106Z,23.00
2018-04-10T08:18:47.335Z,23.00
2018-04-10T08:20:50.455Z,23.10
2018-04-10T08:22:54.341Z,23.10
2018-04-10T08:24:57.494Z,23.10
2018-04-10T08:27:00.603Z,23.20
2018-04-10T08:29:03.814Z,23.20
2018-04-10T08:31:07.697Z,23.10
2018-04-10T08:33:10.820Z,23.10
2018-04-10T08:35:14.706Z,23.00
2018-04-10T08:37:18.593Z,23.00
2018-04-10T08:39:21.749Z,23.00
2018-04-10T08:41:24.969Z,23.00
2018-04-10T08:43:28.099Z,23.00
2018-04-10T08:45:31.228Z,23.00
2018-04-10T08:47:34.375Z,23.00
2018-04-10T08:49:37.524Z,23.00
2018-04-10T08:51:41.432Z,23.00
2018-04-10T08:53:45.322Z,23.00
2018-04-10T08:55:48.429Z,23.00
2018-04-10T08:57:52.329Z,23.00
2018-04-10T08:59:56.212Z,23.10
2018-04-10T09:01:59.348Z,23.00
2018-04-10T09:04:02.515Z,23.10
2018-04-10T09:06:06.454Z,23.20
2018-04-10T09:08:09.699Z,23.10
2018-04-10T09:10:13.568Z,23.20
2018-04-10T09:12:16.678Z,23.20
2018-04-10T09:14:20.572Z,23.20
2018-04-10T09:16:24.826Z,23.20
2018-04-10T09:18:27.926Z,23.20
2018-04-10T09:20:31.059Z,23.10
2018-04-10T09:22:34.215Z,23.10
2018-04-10T09:24:37.326Z,23.10
2018-04-10T09:26:40.438Z,23.10
2018-04-10T09:28:44.320Z,23.00
2018-04-10T09:30:47.437Z,23.00
2018-04-10T09:32:51.295Z,23.10
2018-04-10T09:34:54.417Z,23.10
2018-04-10T09:36:58.319Z,23.10
2018-04-10T09:39:02.252Z,23.20
2018-04-10T09:41:05.604Z,23.10
2018-04-10T09:43:09.573Z,23.20
2018-04-10T09:45:12.827Z,23.20
2018-04-10T09:47:16.059Z,23.30
2018-04-10T09:49:19.208Z,23.30
2018-04-10T09:51:22.396Z,23.40
2018-04-10T09:53:25.533Z,23.40
2018-04-10T09:55:28.705Z,23.50
2018-04-10T09:57:31.888Z,23.50
2018-04-10T09:59:35.036Z,23.50
2018-04-10T10:01:38.212Z,23.50
2018-04-10T10:03:41.344Z,23.60
2018-04-10T10:05:44.525Z,23.60
2018-04-10T10:07:47.656Z,23.60
2018-04-10T10:09:51.541Z,23.70
2018-04-10T10:11:54.716Z,23.60
2018-04-10T10:13:57.865Z,23.70
2018-04-10T10:16:01.016Z,23.70
2018-04-10T10:18:08.043Z,23.70
2018-04-10T10:20:11.229Z,23.70
2018-04-10T10:22:18.718Z,23.70
2018-04-10T10:24:21.803Z,23.70
2018-04-10T10:26:25.653Z,23.70
2018-04-10T10:28:29.538Z,23.70
2018-04-10T10:30:32.646Z,23.80
2018-04-10T10:32:37.143Z,23.80
2018-04-10T10:34:40.290Z,23.80
2018-04-10T10:36:43.434Z,23.90
2018-04-10T10:38:47.392Z,24.00
2018-04-10T10:40:50.568Z,24.00
2018-04-10T10:42:53.817Z,24.00
2018-04-10T10:44:57.734Z,24.00
2018-04-10T10:47:01.466Z,24.00
2018-04-10T10:49:05.332Z,24.00
2018-04-10T10:51:08.492Z,24.10
2018-04-10T10:53:11.605Z,24.10
2018-04-10T10:55:14.744Z,24.10
2018-04-10T10:57:17.915Z,24.10
2018-04-10T10:59:21.034Z,24.10
2018-04-10T11:01:25.112Z,24.10
2018-04-10T11:03:28.250Z,24.10
2018-04-10T11:05:33.204Z,24.00
2018-04-10T11:07:37.116Z,24.00
2018-04-10T11:09:40.917Z,24.00
2018-04-10T11:11:44.024Z,24.00
2018-04-10T11:13:47.191Z,24.00
2018-04-10T11:15:50.365Z,24.00
2018-04-10T11:17:53.509Z,24.00
2018-04-10T11:19:56.621Z,24.00
2018-04-10T11:21:59.731Z,24.00
2018-04-10T11:24:02.845Z,24.00
2018-04-10T11:26:05.969Z,24.10
2018-04-10T11:28:09.858Z,24.10
2018-04-10T11:30:13.739Z,24.10
2018-04-10T11:32:17.320Z,24.10
2018-04-10T11:34:20.443Z,24.10
2018-04-10T11:36:24.343Z,24.10
2018-04-10T11:38:28.290Z,24.10
2018-04-10T11:40:31.476Z,24.10
2018-04-10T11:42:34.635Z,24.10
2018-04-10T11:44:38.526Z,24.10
2018-04-10T11:46:42.431Z,24.10
2018-04-10T11:48:45.738Z,24.00
2018-04-10T11:50:49.641Z,24.00
2018-04-10T11:52:52.772Z,24.00
2018-04-10T11:54:55.973Z,24.00
2018-04-10T11:56:59.753Z,24.00
2018-04-10T11:59:02.966Z,24.00
2018-04-10T12:01:06.152Z,24.00
2018-04-10T12:03:09.375Z,23.90
2018-04-10T12:05:13.303Z,23.90
2018-04-10T12:07:16.419Z,23.90
2018-04-10T12:09:19.576Z,24.00
2018-04-10T12:11:22.664Z,24.00
2018-04-10T12:13:25.862Z,24.00
2018-04-10T12:15:29.035Z,24.00
2018-04-10T12:17:32.149Z,24.00
2018-04-10T12:19:35.381Z,24.10
2018-04-10T12:21:39.326Z,24.10
2018-04-10T12:23:42.463Z,24.00
2018-04-10T12:25:46.399Z,24.00
2018-04-10T12:27:49.572Z,24.00
2018-04-10T12:29:52.867Z,24.10
2018-04-10T12:31:56.036Z,24.10
2018-04-10T12:33:59.940Z,24.10
2018-04-10T12:36:03.824Z,24.10
2018-04-10T12:38:06.973Z,24.10
2018-04-10T12:40:10.197Z,24.20
2018-04-10T12:42:13.377Z,24.10
2018-04-10T12:44:16.628Z,24.10
2018-04-10T12:46:19.755Z,24.10
2018-04-10T12:48:23.764Z,24.10
2018-04-10T12:50:27.691Z,24.10
2018-04-10T12:52:30.842Z,24.10
2018-04-10T12:54:34.043Z,24.10
2018-04-10T12:56:37.266Z,24.10
2018-04-10T12:58:40.404Z,24.10
2018-04-10T13:00:43.543Z,24.10
2018-04-10T13:02:46.758Z,24.10
2018-04-10T13:04:49.965Z,24.10
2018-04-10T13:06:53.072Z,24.10
2018-04-10T13:08:57.666Z,24.20
2018-04-10T13:11:00.796Z,24.20
2018-04-10T13:13:03.993Z,24.20
2018-04-10T13:15:07.250Z,24.20
2018-04-10T13:17:10.384Z,24.20
2018-04-10T13:19:14.366Z,24.30
2018-04-10T13:21:18.281Z,24.20
2018-04-10T13:23:21.469Z,24.20
2018-04-10T13:25:24.592Z,24.20
2018-04-10T13:27:27.771Z,24.20
2018-04-10T13:29:30.934Z,24.20
2018-04-10T13:31:34.142Z,24.20
2018-04-10T13:33:37.265Z,24.30
2018-04-10T13:35:41.144Z,24.30
2018-04-10T13:37:44.328Z,24.20
2018-04-10T13:39:47.524Z,24.20
2018-04-10T13:41:50.650Z,24.20
2018-04-10T13:43:53.805Z,24.30
2018-04-10T13:45:57.800Z,24.40
2018-04-10T13:48:01.016Z,24.30
2018-04-10T13:50:04.181Z,24.30
2018-04-10T13:52:07.328Z,24.40
2018-04-10T13:54:10.500Z,24.40
2018-04-10T13:56:13.670Z,24.30
2018-04-10T13:58:16.820Z,24.20
2018-04-10T14:00:19.993Z,24.20
2018-04-10T14:02:23.161Z,24.20
2018-04-10T14:04:26.386Z,24.20
2018-04-10T14:06:29.510Z,24.10
2018-04-10T14:08:32.719Z,24.10
2018-04-10T14:10:35.839Z,24.00
2018-04-10T14:12:39.825Z,24.00
2018-04-10T14:14:43.711Z,23.90
2018-04-10T14:16:47.393Z,23.90
2018-04-10T14:18:50.592Z,23.90
2018-04-10T14:20:53.714Z,23.80
2018-04-10T14:22:56.884Z,23.80
2018-04-10T14:25:00.022Z,23.80
2018-04-10T14:27:05.012Z,23.80
2018-04-10T14:29:08.325Z,23.80
2018-04-10T14:31:11.490Z,23.80
2018-04-10T14:33:14.989Z,23.80
2018-04-10T14:35:18.938Z,23.80
2018-04-10T14:37:22.335Z,23.80
2018-04-10T14:39:26.731Z,23.90
2018-04-10T14:41:30.783Z,23.90
2018-04-10T14:43:33.935Z,23.90
2018-04-10T14:45:37.261Z,23.90
2018-04-10T14:47:40.415Z,23.90
2018-04-10T14:49:43.546Z,24.00
2018-04-10T14:51:46.692Z,23.90
2018-04-10T14:53:49.820Z,23.90
2018-04-10T14:55:53.027Z,23.80
2018-04-10T14:57:56.936Z,23.80
2018-04-10T15:00:00.081Z,23.80
2018-04-10T15:02:03.276Z,23.80
2018-04-10T15:04:06.468Z,23.80
2018-04-10T15:06:10.552Z,23.80
2018-04-10T15:08:13.828Z,23.70
2018-04-10T15:10:18.122Z,23.60
2018-04-10T15:12:21.332Z,23.60
2018-04-10T15:14:24.476Z,23.60
2018-04-10T15:16:27.657Z,23.60
2018-04-10T15:18:30.990Z,23.60
2018-04-10T15:20:34.154Z,23.50
2018-04-10T15:22:38.023Z,23.50
2018-04-10T15:24:41.160Z,23.50
2018-04-10T15:26:44.268Z,23.40
2018-04-10T15:28:47.451Z,23.40
2018-04-10T15:30:51.444Z,23.30
2018-04-10T15:32:54.575Z,23.30
2018-04-10T15:34:57.699Z,23.30
2018-04-10T15:37:00.833Z,23.30
2018-04-10T15:39:04.274Z,23.20
2018-04-10T15:41:08.201Z,23.20
2018-04-10T15:43:11.339Z,23.20
2018-04-10T15:45:15.275Z,23.10
2018-04-10T15:47:18.439Z,23.10
2018-04-10T15:49:22.376Z,23.00
2018-04-10T15:51:25.552Z,23.00
2018-04-10T15:53:29.479Z,23.00
2018-04-10T15:55:32.637Z,23.00
2018-04-10T15:57:36.590Z,23.00
2018-04-10T15:59:39.744Z,23.00
2018-04-10T16:01:42.882Z,23.00
2018-04-10T16:03:46.143Z,22.90
2018-04-10T16:05:49.259Z,23.00
2018-04-10T16:07:52.390Z,22.90
2018-04-10T16:09:55.536Z,23.00
2018-04-10T16:11:59.484Z,23.00
2018-04-10T16:14:02.638Z,23.00
2018-04-10T16:16:06.801Z,22.90
2018-04-10T16:18:09.901Z,23.00
2018-04-10T16:20:13.024Z,22.90
2018-04-10T16:22:16.944Z,22.90
2018-04-10T16:24:20.486Z,22.90
2018-04-10T16:26:23.697Z,22.90
2018-04-10T16:28:27.575Z,22.90
2018-04-10T16:30:30.733Z,22.90
2018-04-10T16:32:34.159Z,22.90
2018-04-10T16:34:37.306Z,22.90
2018-04-10T16:36:41.177Z,22.80
2018-04-10T16:38:44.347Z,22.90
2018-04-10T16:40:47.570Z,22.90
2018-04-10T16:42:50.700Z,22.90
2018-04-10T16:44:53.896Z,22.90
2018-04-10T16:46:57.134Z,22.90
2018-04-10T16:49:00.248Z,22.90
2018-04-10T16:51:03.364Z,22.90
2018-04-10T16:53:06.515Z,22.80
2018-04-10T16:55:09.696Z,22.80
2018-04-10T16:57:12.842Z,22.80
2018-04-10T16:59:16.758Z,22.90
2018-04-10T17:01:20.630Z,22.90
2018-04-10T17:03:23.883Z,22.90
2018-04-10T17:05:26.994Z,22.90
2018-04-10T17:07:30.212Z,22.90
2018-04-10T17:09:33.333Z,22.80
2018-04-10T17:11:36.470Z,22.80
2018-04-10T17:13:39.602Z,22.80
2018-04-10T17:15:42.724Z,22.80
2018-04-10T17:17:45.853Z,22.80
2018-04-10T17:19:48.994Z,22.80
2018-04-10T17:21:52.186Z,22.80
2018-04-10T17:23:55.321Z,22.80
2018-04-10T17:25:58.427Z,22.70
2018-04-10T17:28:01.585Z,22.80
2018-04-10T17:30:04.831Z,22.80
2018-04-10T17:32:07.957Z,22.70
2018-04-10T17:34:11.158Z,22.70
2018-04-10T17:36:15.235Z,22.70
2018-04-10T17:38:18.350Z,22.70
2018-04-10T17:40:21.601Z,22.80
2018-04-10T17:42:24.727Z,22.80
2018-04-10T17:44:27.857Z,22.80
2018-04-10T17:46:30.993Z,22.80
2018-04-10T17:48:34.212Z,22.90
2018-04-10T17:50:37.415Z,22.90
2018-04-10T17:52:40.555Z,22.90
2018-04-10T17:54:43.745Z,22.80
2018-04-10T17:56:46.898Z,22.80
2018-04-10T17:58:50.081Z,22.80
2018-04-10T18:00:54.044Z,22.80
2018-04-10T18:02:57.144Z,22.70
2018-04-10T18:05:00.274Z,22.70
2018-04-10T18:07:03.439Z,22.70
2018-04-10T18:11:17.304Z,22.70
2018-04-10T18:13:21.133Z,22.60
2018-04-10T18:15:24.319Z,22.70
2018-04-10T18:17:28.321Z,22.60
2018-04-10T18:19:31.682Z,22.60
2018-04-10T18:21:35.652Z,22.60
2018-04-10T18:23:38.876Z,22.60
2018-04-10T18:25:42.771Z,22.50
2018-04-10T18:27:46.700Z,22.50
2018-04-10T18:29:50.778Z,22.50
2018-04-10T18:31:53.949Z,22.40
2018-04-10T18:33:57.205Z,22.40
2018-04-10T18:36:00.360Z,22.30
2018-04-10T18:38:04.281Z,22.20
2018-04-10T18:40:07.526Z,22.20
2018-04-10T18:42:10.684Z,22.20
2018-04-10T18:44:14.102Z,22.20
2018-04-10T18:46:17.317Z,22.10
2018-04-10T18:48:20.568Z,22.00
2018-04-10T18:50:23.713Z,22.00
2018-04-10T18:52:26.919Z,22.00
2018-04-10T18:54:30.101Z,22.00
2018-04-10T18:56:33.343Z,22.00
2018-04-10T18:58:36.580Z,21.90
2018-04-10T19:00:39.776Z,21.90
2018-04-10T19:02:46.894Z,21.90
2018-04-10T19:04:50.078Z,22.20
2018-04-10T19:06:55.177Z,21.80
2018-04-10T19:08:58.405Z,21.80
2018-04-10T19:11:04.578Z,21.00
2018-04-10T19:13:08.528Z,21.10
2018-04-10T19:15:12.886Z,21.10
2018-04-10T19:17:16.906Z,21.10
2018-04-10T19:19:21.764Z,21.10
2018-04-10T19:21:25.936Z,21.10
2018-04-10T19:23:29.287Z,21.10
2018-04-10T19:25:32.425Z,21.50
2018-04-10T19:27:35.585Z,21.90
2018-04-10T19:29:38.932Z,22.10
2018-04-10T19:31:42.057Z,22.30
2018-04-10T19:33:45.231Z,22.40
2018-04-10T19:35:48.397Z,22.60
2018-04-10T19:37:51.540Z,22.60
2018-04-10T19:39:55.460Z,22.80
2018-04-10T19:41:59.385Z,22.90
2018-04-10T19:44:02.512Z,22.90
2018-04-10T19:46:06.511Z,22.90
2018-04-10T19:48:09.723Z,22.90
2018-04-10T19:50:12.883Z,23.00
2018-04-10T19:52:16.042Z,23.00
2018-04-10T19:54:19.555Z,23.00
2018-04-10T19:56:22.831Z,23.00
2018-04-10T19:58:25.995Z,23.10
2018-04-10T20:00:29.121Z,23.10
2018-04-10T20:02:32.244Z,23.10
2018-04-10T20:04:35.403Z,23.10
2018-04-10T20:06:38.611Z,23.10
2018-04-10T20:08:41.817Z,23.20
2018-04-10T20:10:45.497Z,23.20
2018-04-10T20:12:48.620Z,23.20
2018-04-10T20:14:51.784Z,23.20
2018-04-10T20:16:54.937Z,23.20
2018-04-10T20:18:58.908Z,23.20
2018-04-10T20:21:02.047Z,23.20
2018-04-10T20:23:05.155Z,23.30
2018-04-10T20:25:08.363Z,23.20
2018-04-10T20:27:11.971Z,23.30
2018-04-10T20:29:15.154Z,23.30
2018-04-10T20:31:18.286Z,23.30
2018-04-10T20:33:27.103Z,23.30
2018-04-10T20:35:30.989Z,23.30
2018-04-10T20:37:34.104Z,23.30
2018-04-10T20:39:37.232Z,23.30
2018-04-10T20:41:40.367Z,23.30
2018-04-10T20:43:44.239Z,23.30
2018-04-10T20:45:47.375Z,23.30
2018-04-10T20:47:50.511Z,23.40
2018-04-10T20:49:53.652Z,23.40
2018-04-10T20:51:56.895Z,23.40
2018-04-10T20:54:00.002Z,23.40
2018-04-10T20:56:03.958Z,23.40
2018-04-10T20:58:07.113Z,23.40
2018-04-10T21:00:10.233Z,23.40
2018-04-10T21:02:13.884Z,23.40
2018-04-10T21:04:17.053Z,23.40
2018-04-10T21:06:20.986Z,23.30
2018-04-10T21:08:24.177Z,23.30
2018-04-10T21:10:27.418Z,23.30
2018-04-10T21:12:30.543Z,23.30
2018-04-10T21:14:33.687Z,23.30
2018-04-10T21:16:37.723Z,23.30
2018-04-10T21:18:40.883Z,23.30
2018-04-10T21:20:44.824Z,23.20
2018-04-10T21:22:48.383Z,23.20
2018-04-10T21:24:52.318Z,22.90
2018-04-10T21:26:55.456Z,23.00
2018-04-10T21:28:59.534Z,22.80
2018-04-10T21:31:02.686Z,22.80
2018-04-10T21:33:05.813Z,22.70
2018-04-10T21:35:08.968Z,22.60
2018-04-10T21:37:12.101Z,22.60
2018-04-10T21:39:16.039Z,22.60
2018-04-10T21:41:19.935Z,22.50
2018-04-10T21:43:29.475Z,22.70
2018-04-10T21:45:32.602Z,22.70
2018-04-10T21:47:35.795Z,22.90
2018-04-10T21:49:38.937Z,23.00
2018-04-10T21:51:42.952Z,23.10
2018-04-10T21:53:47.581Z,23.10
2018-04-10T21:55:50.788Z,23.10
2018-04-10T21:57:53.919Z,23.10
2018-04-10T21:59:57.047Z,23.20
2018-04-10T22:02:00.261Z,23.20
2018-04-10T22:04:03.390Z,23.30
2018-04-10T22:06:07.273Z,23.30
2018-04-10T22:08:10.479Z,23.30
2018-04-10T22:10:14.418Z,23.30
2018-04-10T22:12:17.517Z,23.30
2018-04-10T22:14:20.671Z,23.30
2018-04-10T22:16:24.610Z,23.30
2018-04-10T22:18:27.769Z,23.30
2018-04-10T22:20:30.889Z,23.30
2018-04-10T22:22:34.041Z,23.30
2018-04-10T22:24:37.929Z,23.30
2018-04-10T22:26:41.887Z,23.30
2018-04-10T22:28:45.034Z,23.30
2018-04-10T22:30:48.176Z,23.40
2018-04-10T22:32:51.267Z,23.40
2018-04-10T22:34:55.231Z,23.40
2018-04-10T22:36:58.371Z,23.30
2018-04-10T22:39:01.554Z,23.30
2018-04-10T22:41:05.474Z,23.30
2018-04-10T22:43:09.820Z,23.30
2018-04-10T22:45:12.980Z,23.30
2018-04-10T22:47:16.149Z,23.20
2018-04-10T22:49:19.348Z,23.20
2018-04-10T22:51:22.473Z,23.20
2018-04-10T22:53:26.841Z,23.30
2018-04-10T22:55:30.035Z,23.30
2018-04-10T22:57:33.173Z,23.20
2018-04-10T22:59:36.294Z,23.20
2018-04-10T23:01:39.463Z,23.20
2018-04-10T23:03:42.618Z,23.10
2018-04-10T23:05:45.841Z,23.10
2018-04-10T23:07:48.985Z,23.10
2018-04-10T23:09:52.203Z,23.10
2018-04-10T23:11:55.320Z,23.10
2018-04-10T23:13:58.486Z,23.10
2018-04-10T23:16:01.966Z,23.10
2018-04-10T23:18:05.126Z,23.20
2018-04-10T23:20:09.006Z,23.20
2018-04-10T23:22:12.159Z,23.20
2018-04-10T23:24:15.367Z,23.20
2018-04-10T23:26:18.464Z,23.20
2018-04-10T23:28:21.669Z,23.20
2018-04-10T23:30:24.765Z,23.20
